sensor_id;sensor_type;location;lat;lon;timestamp;P1;durP1;ratioP1;P2;durP2;ratioP2
36215;SDS011;22257;52.232;21.084;2022-07-01T00:01:07;11.70;;;7.42;;
36215;SDS011;22257;52.232;21.084;2022-07-01T00:03:33;22.73;;;8.40;;
36215;SDS011;22257;52.232;21.084;2022-07-01T00:06:00;14.13;;;7.83;;
36215;SDS011;22257;52.232;21.084;2022-07-01T00:08:26;15.68;;;7.40;;
36215;SDS011;22257;52.232;21.084;2022-07-01T00:10:52;18.55;;;8.15;;
36215;SDS011;22257;52.232;21.084;2022-07-01T00:13:18;16.45;;;7.55;;
36215;SDS011;22257;52.232;21.084;2022-07-01T00:15:44;21.40;;;8.48;;
36215;SDS011;22257;52.232;21.084;2022-07-01T00:18:10;15.53;;;8.00;;
36215;SDS011;22257;52.232;21.084;2022-07-01T00:20:36;18.15;;;8.28;;
36215;SDS011;22257;52.232;21.084;2022-07-01T00:23:02;13.83;;;8.70;;
36215;SDS011;22257;52.232;21.084;2022-07-01T00:25:28;15.35;;;9.15;;
36215;SDS011;22257;52.232;21.084;2022-07-01T00:27:54;13.83;;;7.97;;
36215;SDS011;22257;52.232;21.084;2022-07-01T00:30:20;14.00;;;8.30;;
36215;SDS011;22257;52.232;21.084;2022-07-01T00:32:46;17.55;;;8.43;;
36215;SDS011;22257;52.232;21.084;2022-07-01T00:35:13;16.42;;;8.63;;
36215;SDS011;22257;52.232;21.084;2022-07-01T00:37:39;14.20;;;8.33;;
36215;SDS011;22257;52.232;21.084;2022-07-01T00:40:07;13.38;;;8.85;;
36215;SDS011;22257;52.232;21.084;2022-07-01T00:42:37;14.35;;;9.03;;
36215;SDS011;22257;52.232;21.084;2022-07-01T00:45:07;13.38;;;8.20;;
36215;SDS011;22257;52.232;21.084;2022-07-01T00:47:36;16.42;;;8.70;;
36215;SDS011;22257;52.232;21.084;2022-07-01T00:50:06;16.05;;;9.23;;
36215;SDS011;22257;52.232;21.084;2022-07-01T00:52:35;21.68;;;8.28;;
36215;SDS011;22257;52.232;21.084;2022-07-01T00:55:03;17.17;;;10.08;;
36215;SDS011;22257;52.232;21.084;2022-07-01T00:57:31;11.97;;;8.08;;
36215;SDS011;22257;52.232;21.084;2022-07-01T00:59:58;14.43;;;8.43;;
36215;SDS011;22257;52.232;21.084;2022-07-01T01:02:26;15.63;;;9.85;;
36215;SDS011;22257;52.232;21.084;2022-07-01T01:04:52;16.97;;;9.60;;
36215;SDS011;22257;52.232;21.084;2022-07-01T01:07:18;19.07;;;8.55;;
36215;SDS011;22257;52.232;21.084;2022-07-01T01:09:45;17.98;;;8.88;;
36215;SDS011;22257;52.232;21.084;2022-07-01T01:12:10;13.83;;;8.70;;
36215;SDS011;22257;52.232;21.084;2022-07-01T01:14:48;16.57;;;9.20;;
36215;SDS011;22257;52.232;21.084;2022-07-01T01:17:16;13.10;;;8.68;;
36215;SDS011;22257;52.232;21.084;2022-07-01T01:19:43;16.07;;;9.30;;
36215;SDS011;22257;52.232;21.084;2022-07-01T01:22:09;16.32;;;8.98;;
36215;SDS011;22257;52.232;21.084;2022-07-01T01:24:37;20.75;;;9.43;;
36215;SDS011;22257;52.232;21.084;2022-07-01T01:27:04;16.32;;;8.93;;
36215;SDS011;22257;52.232;21.084;2022-07-01T01:29:31;18.17;;;9.10;;
36215;SDS011;22257;52.232;21.084;2022-07-01T01:31:57;14.23;;;9.00;;
36215;SDS011;22257;52.232;21.084;2022-07-01T01:34:24;16.05;;;9.03;;
36215;SDS011;22257;52.232;21.084;2022-07-01T01:36:50;14.03;;;9.48;;
36215;SDS011;22257;52.232;21.084;2022-07-01T01:39:17;13.53;;;9.40;;
36215;SDS011;22257;52.232;21.084;2022-07-01T01:41:44;20.88;;;10.40;;
36215;SDS011;22257;52.232;21.084;2022-07-01T01:44:11;15.78;;;10.13;;
36215;SDS011;22257;52.232;21.084;2022-07-01T01:46:37;20.20;;;9.45;;
36215;SDS011;22257;52.232;21.084;2022-07-01T01:49:04;19.17;;;10.60;;
36215;SDS011;22257;52.232;21.084;2022-07-01T01:51:32;15.20;;;10.40;;
36215;SDS011;22257;52.232;21.084;2022-07-01T01:53:59;19.48;;;10.20;;
36215;SDS011;22257;52.232;21.084;2022-07-01T01:56:25;19.25;;;9.73;;
36215;SDS011;22257;52.232;21.084;2022-07-01T01:58:52;16.77;;;9.43;;
36215;SDS011;22257;52.232;21.084;2022-07-01T02:01:19;17.77;;;10.15;;
36215;SDS011;22257;52.232;21.084;2022-07-01T02:03:46;14.10;;;9.33;;
36215;SDS011;22257;52.232;21.084;2022-07-01T02:06:14;15.08;;;9.80;;
36215;SDS011;22257;52.232;21.084;2022-07-01T02:08:41;15.83;;;9.35;;
36215;SDS011;22257;52.232;21.084;2022-07-01T02:11:07;18.73;;;9.83;;
36215;SDS011;22257;52.232;21.084;2022-07-01T02:13:34;22.00;;;9.83;;
36215;SDS011;22257;52.232;21.084;2022-07-01T02:16:01;13.60;;;8.63;;
36215;SDS011;22257;52.232;21.084;2022-07-01T02:18:28;14.83;;;8.58;;
36215;SDS011;22257;52.232;21.084;2022-07-01T02:20:54;13.00;;;8.33;;
36215;SDS011;22257;52.232;21.084;2022-07-01T02:23:20;20.75;;;8.18;;
36215;SDS011;22257;52.232;21.084;2022-07-01T02:25:47;16.00;;;8.25;;
36215;SDS011;22257;52.232;21.084;2022-07-01T02:28:14;15.48;;;8.50;;
36215;SDS011;22257;52.232;21.084;2022-07-01T02:30:40;18.55;;;9.00;;
36215;SDS011;22257;52.232;21.084;2022-07-01T02:33:07;18.42;;;9.45;;
36215;SDS011;22257;52.232;21.084;2022-07-01T02:35:35;21.48;;;9.10;;
36215;SDS011;22257;52.232;21.084;2022-07-01T02:38:03;17.92;;;9.48;;
36215;SDS011;22257;52.232;21.084;2022-07-01T02:40:30;16.85;;;9.13;;
36215;SDS011;22257;52.232;21.084;2022-07-01T02:42:56;22.55;;;9.00;;
36215;SDS011;22257;52.232;21.084;2022-07-01T02:45:23;17.85;;;9.58;;
36215;SDS011;22257;52.232;21.084;2022-07-01T02:47:50;17.70;;;9.70;;
36215;SDS011;22257;52.232;21.084;2022-07-01T02:50:17;16.48;;;9.05;;
36215;SDS011;22257;52.232;21.084;2022-07-01T02:52:44;16.97;;;9.70;;
36215;SDS011;22257;52.232;21.084;2022-07-01T02:55:12;17.90;;;10.40;;
36215;SDS011;22257;52.232;21.084;2022-07-01T02:57:39;18.82;;;10.03;;
36215;SDS011;22257;52.232;21.084;2022-07-01T03:00:07;21.20;;;10.63;;
36215;SDS011;22257;52.232;21.084;2022-07-01T03:02:35;18.52;;;10.25;;
36215;SDS011;22257;52.232;21.084;2022-07-01T03:05:02;15.78;;;10.28;;
36215;SDS011;22257;52.232;21.084;2022-07-01T03:07:30;18.98;;;11.18;;
36215;SDS011;22257;52.232;21.084;2022-07-01T03:09:56;19.92;;;10.08;;
36215;SDS011;22257;52.232;21.084;2022-07-01T03:12:23;18.27;;;10.15;;
36215;SDS011;22257;52.232;21.084;2022-07-01T03:14:58;18.42;;;9.75;;
36215;SDS011;22257;52.232;21.084;2022-07-01T03:17:28;17.37;;;10.15;;
36215;SDS011;22257;52.232;21.084;2022-07-01T03:19:55;19.92;;;10.32;;
36215;SDS011;22257;52.232;21.084;2022-07-01T03:22:22;16.25;;;9.15;;
36215;SDS011;22257;52.232;21.084;2022-07-01T03:24:50;18.37;;;9.73;;
36215;SDS011;22257;52.232;21.084;2022-07-01T03:27:18;26.33;;;10.28;;
36215;SDS011;22257;52.232;21.084;2022-07-01T03:29:46;19.25;;;10.10;;
36215;SDS011;22257;52.232;21.084;2022-07-01T03:32:12;23.47;;;9.83;;
36215;SDS011;22257;52.232;21.084;2022-07-01T03:34:39;20.02;;;10.58;;
36215;SDS011;22257;52.232;21.084;2022-07-01T03:37:07;16.73;;;9.83;;
36215;SDS011;22257;52.232;21.084;2022-07-01T03:39:35;19.42;;;10.05;;
36215;SDS011;22257;52.232;21.084;2022-07-01T03:42:02;21.50;;;10.43;;
36215;SDS011;22257;52.232;21.084;2022-07-01T03:44:29;20.37;;;10.70;;
36215;SDS011;22257;52.232;21.084;2022-07-01T03:46:56;20.27;;;10.08;;
36215;SDS011;22257;52.232;21.084;2022-07-01T03:49:22;18.10;;;10.08;;
36215;SDS011;22257;52.232;21.084;2022-07-01T03:51:48;24.70;;;10.28;;
36215;SDS011;22257;52.232;21.084;2022-07-01T03:54:15;18.98;;;10.35;;
36215;SDS011;22257;52.232;21.084;2022-07-01T03:57:18;17.12;;;10.28;;
36215;SDS011;22257;52.232;21.084;2022-07-01T03:59:45;17.35;;;10.75;;
36215;SDS011;22257;52.232;21.084;2022-07-01T04:02:12;19.12;;;10.23;;
36215;SDS011;22257;52.232;21.084;2022-07-01T04:04:38;18.82;;;10.28;;
36215;SDS011;22257;52.232;21.084;2022-07-01T04:07:04;17.37;;;10.80;;
36215;SDS011;22257;52.232;21.084;2022-07-01T04:09:32;16.50;;;10.90;;
36215;SDS011;22257;52.232;21.084;2022-07-01T04:11:59;19.35;;;10.95;;
36215;SDS011;22257;52.232;21.084;2022-07-01T04:14:25;17.15;;;10.35;;
36215;SDS011;22257;52.232;21.084;2022-07-01T04:16:51;14.30;;;10.58;;
36215;SDS011;22257;52.232;21.084;2022-07-01T04:19:19;19.60;;;10.68;;
36215;SDS011;22257;52.232;21.084;2022-07-01T04:21:45;25.00;;;10.65;;
36215;SDS011;22257;52.232;21.084;2022-07-01T04:24:29;22.82;;;10.88;;
36215;SDS011;22257;52.232;21.084;2022-07-01T04:26:58;19.45;;;10.28;;
36215;SDS011;22257;52.232;21.084;2022-07-01T04:29:26;16.48;;;10.80;;
36215;SDS011;22257;52.232;21.084;2022-07-01T04:31:55;15.35;;;10.18;;
36215;SDS011;22257;52.232;21.084;2022-07-01T04:34:22;16.40;;;10.15;;
36215;SDS011;22257;52.232;21.084;2022-07-01T04:36:48;12.82;;;9.83;;
36215;SDS011;22257;52.232;21.084;2022-07-01T04:39:14;13.58;;;10.10;;
36215;SDS011;22257;52.232;21.084;2022-07-01T04:41:40;19.12;;;10.28;;
36215;SDS011;22257;52.232;21.084;2022-07-01T04:44:24;12.33;;;10.30;;
36215;SDS011;22257;52.232;21.084;2022-07-01T04:46:53;21.02;;;10.88;;
36215;SDS011;22257;52.232;21.084;2022-07-01T04:49:19;14.05;;;10.82;;
36215;SDS011;22257;52.232;21.084;2022-07-01T04:51:45;17.00;;;11.40;;
36215;SDS011;22257;52.232;21.084;2022-07-01T04:54:11;15.13;;;11.18;;
36215;SDS011;22257;52.232;21.084;2022-07-01T04:56:37;12.53;;;10.58;;
36215;SDS011;22257;52.232;21.084;2022-07-01T04:59:04;17.52;;;11.30;;
36215;SDS011;22257;52.232;21.084;2022-07-01T05:01:31;18.02;;;10.60;;
36215;SDS011;22257;52.232;21.084;2022-07-01T05:03:57;18.12;;;11.18;;
36215;SDS011;22257;52.232;21.084;2022-07-01T05:06:24;13.43;;;10.85;;
36215;SDS011;22257;52.232;21.084;2022-07-01T05:08:51;14.23;;;10.95;;
36215;SDS011;22257;52.232;21.084;2022-07-01T05:11:17;23.20;;;11.33;;
36215;SDS011;22257;52.232;21.084;2022-07-01T05:13:43;14.38;;;11.20;;
36215;SDS011;22257;52.232;21.084;2022-07-01T05:16:09;17.70;;;11.28;;
36215;SDS011;22257;52.232;21.084;2022-07-01T05:18:39;19.85;;;11.30;;
36215;SDS011;22257;52.232;21.084;2022-07-01T05:21:22;13.88;;;10.88;;
36215;SDS011;22257;52.232;21.084;2022-07-01T05:24:07;21.23;;;11.05;;
36215;SDS011;22257;52.232;21.084;2022-07-01T05:26:33;20.45;;;10.88;;
36215;SDS011;22257;52.232;21.084;2022-07-01T05:29:00;16.80;;;10.70;;
36215;SDS011;22257;52.232;21.084;2022-07-01T05:31:26;12.82;;;10.28;;
36215;SDS011;22257;52.232;21.084;2022-07-01T05:33:52;14.28;;;10.68;;
36215;SDS011;22257;52.232;21.084;2022-07-01T05:36:18;16.73;;;11.00;;
36215;SDS011;22257;52.232;21.084;2022-07-01T05:38:44;16.37;;;10.32;;
36215;SDS011;22257;52.232;21.084;2022-07-01T05:41:10;15.85;;;11.18;;
36215;SDS011;22257;52.232;21.084;2022-07-01T05:43:36;19.87;;;10.25;;
36215;SDS011;22257;52.232;21.084;2022-07-01T05:46:03;14.45;;;10.85;;
36215;SDS011;22257;52.232;21.084;2022-07-01T05:48:29;14.47;;;10.35;;
36215;SDS011;22257;52.232;21.084;2022-07-01T05:50:55;16.30;;;10.60;;
36215;SDS011;22257;52.232;21.084;2022-07-01T05:53:21;14.15;;;10.60;;
36215;SDS011;22257;52.232;21.084;2022-07-01T05:55:48;14.90;;;10.25;;
36215;SDS011;22257;52.232;21.084;2022-07-01T05:58:14;12.53;;;10.32;;
36215;SDS011;22257;52.232;21.084;2022-07-01T06:00:41;24.20;;;10.88;;
36215;SDS011;22257;52.232;21.084;2022-07-01T06:03:11;14.87;;;9.83;;
36215;SDS011;22257;52.232;21.084;2022-07-01T06:05:36;14.70;;;10.32;;
36215;SDS011;22257;52.232;21.084;2022-07-01T06:08:04;14.63;;;9.83;;
36215;SDS011;22257;52.232;21.084;2022-07-01T06:10:31;14.53;;;10.00;;
36215;SDS011;22257;52.232;21.084;2022-07-01T06:12:58;19.57;;;10.43;;
36215;SDS011;22257;52.232;21.084;2022-07-01T06:15:25;15.23;;;10.55;;
36215;SDS011;22257;52.232;21.084;2022-07-01T06:17:52;18.27;;;10.90;;
36215;SDS011;22257;52.232;21.084;2022-07-01T06:20:19;22.22;;;10.32;;
36215;SDS011;22257;52.232;21.084;2022-07-01T06:22:45;16.00;;;10.23;;
36215;SDS011;22257;52.232;21.084;2022-07-01T06:25:11;20.35;;;10.90;;
36215;SDS011;22257;52.232;21.084;2022-07-01T06:27:38;16.10;;;9.75;;
36215;SDS011;22257;52.232;21.084;2022-07-01T06:30:09;17.80;;;10.38;;
36215;SDS011;22257;52.232;21.084;2022-07-01T06:32:36;19.00;;;10.03;;
36215;SDS011;22257;52.232;21.084;2022-07-01T06:35:03;20.77;;;10.28;;
36215;SDS011;22257;52.232;21.084;2022-07-01T06:37:30;24.40;;;10.18;;
36215;SDS011;22257;52.232;21.084;2022-07-01T06:39:59;19.67;;;10.10;;
36215;SDS011;22257;52.232;21.084;2022-07-01T06:42:26;21.85;;;10.65;;
36215;SDS011;22257;52.232;21.084;2022-07-01T06:44:52;21.62;;;10.00;;
36215;SDS011;22257;52.232;21.084;2022-07-01T06:47:18;16.25;;;10.18;;
36215;SDS011;22257;52.232;21.084;2022-07-01T06:49:44;26.93;;;10.03;;
36215;SDS011;22257;52.232;21.084;2022-07-01T06:52:10;18.20;;;9.40;;
36215;SDS011;22257;52.232;21.084;2022-07-01T06:54:37;30.08;;;9.95;;
36215;SDS011;22257;52.232;21.084;2022-07-01T06:57:03;14.55;;;9.48;;
36215;SDS011;22257;52.232;21.084;2022-07-01T06:59:31;16.27;;;10.30;;
36215;SDS011;22257;52.232;21.084;2022-07-01T07:01:57;19.95;;;10.10;;
36215;SDS011;22257;52.232;21.084;2022-07-01T07:04:23;18.45;;;9.80;;
36215;SDS011;22257;52.232;21.084;2022-07-01T07:06:49;20.00;;;10.00;;
36215;SDS011;22257;52.232;21.084;2022-07-01T07:09:15;22.05;;;10.10;;
36215;SDS011;22257;52.232;21.084;2022-07-01T07:11:41;18.92;;;9.80;;
36215;SDS011;22257;52.232;21.084;2022-07-01T07:14:08;16.23;;;10.13;;
36215;SDS011;22257;52.232;21.084;2022-07-01T07:16:34;20.12;;;10.10;;
36215;SDS011;22257;52.232;21.084;2022-07-01T07:19:00;22.50;;;9.85;;
36215;SDS011;22257;52.232;21.084;2022-07-01T07:21:26;14.05;;;9.70;;
36215;SDS011;22257;52.232;21.084;2022-07-01T07:23:52;23.12;;;9.60;;
36215;SDS011;22257;52.232;21.084;2022-07-01T07:26:18;15.38;;;8.90;;
36215;SDS011;22257;52.232;21.084;2022-07-01T07:28:44;17.85;;;8.95;;
36215;SDS011;22257;52.232;21.084;2022-07-01T07:31:10;19.48;;;8.85;;
36215;SDS011;22257;52.232;21.084;2022-07-01T07:33:36;15.30;;;8.50;;
36215;SDS011;22257;52.232;21.084;2022-07-01T07:36:03;20.70;;;8.43;;
36215;SDS011;22257;52.232;21.084;2022-07-01T07:38:29;18.10;;;8.63;;
36215;SDS011;22257;52.232;21.084;2022-07-01T07:40:55;18.73;;;8.63;;
36215;SDS011;22257;52.232;21.084;2022-07-01T07:43:21;14.78;;;8.90;;
36215;SDS011;22257;52.232;21.084;2022-07-01T07:45:47;16.05;;;8.15;;
36215;SDS011;22257;52.232;21.084;2022-07-01T07:48:13;14.43;;;8.08;;
36215;SDS011;22257;52.232;21.084;2022-07-01T07:50:39;15.70;;;7.80;;
36215;SDS011;22257;52.232;21.084;2022-07-01T07:53:06;14.47;;;7.17;;
36215;SDS011;22257;52.232;21.084;2022-07-01T07:55:32;10.93;;;7.47;;
36215;SDS011;22257;52.232;21.084;2022-07-01T07:57:58;15.10;;;6.45;;
36215;SDS011;22257;52.232;21.084;2022-07-01T08:00:24;11.55;;;6.78;;
36215;SDS011;22257;52.232;21.084;2022-07-01T08:02:50;10.03;;;7.00;;
36215;SDS011;22257;52.232;21.084;2022-07-01T08:05:16;10.25;;;6.87;;
36215;SDS011;22257;52.232;21.084;2022-07-01T08:07:42;15.48;;;7.00;;
36215;SDS011;22257;52.232;21.084;2022-07-01T08:10:09;10.78;;;6.87;;
36215;SDS011;22257;52.232;21.084;2022-07-01T08:12:37;9.78;;;6.37;;
36215;SDS011;22257;52.232;21.084;2022-07-01T08:15:03;8.18;;;6.85;;
36215;SDS011;22257;52.232;21.084;2022-07-01T08:17:30;11.93;;;6.17;;
36215;SDS011;22257;52.232;21.084;2022-07-01T08:19:57;16.25;;;7.28;;
36215;SDS011;22257;52.232;21.084;2022-07-01T08:22:23;10.30;;;6.20;;
36215;SDS011;22257;52.232;21.084;2022-07-01T08:24:49;11.38;;;6.45;;
36215;SDS011;22257;52.232;21.084;2022-07-01T08:27:15;11.22;;;6.10;;
36215;SDS011;22257;52.232;21.084;2022-07-01T08:29:41;8.43;;;5.97;;
36215;SDS011;22257;52.232;21.084;2022-07-01T08:32:08;7.87;;;5.75;;
36215;SDS011;22257;52.232;21.084;2022-07-01T08:34:34;12.85;;;6.42;;
36215;SDS011;22257;52.232;21.084;2022-07-01T08:37:05;12.10;;;6.33;;
36215;SDS011;22257;52.232;21.084;2022-07-01T08:39:29;11.57;;;5.85;;
36215;SDS011;22257;52.232;21.084;2022-07-01T08:41:55;12.00;;;5.90;;
36215;SDS011;22257;52.232;21.084;2022-07-01T08:44:23;10.15;;;6.20;;
36215;SDS011;22257;52.232;21.084;2022-07-01T08:46:50;8.30;;;5.87;;
36215;SDS011;22257;52.232;21.084;2022-07-01T08:49:16;9.95;;;5.85;;
36215;SDS011;22257;52.232;21.084;2022-07-01T08:51:43;13.70;;;6.15;;
36215;SDS011;22257;52.232;21.084;2022-07-01T08:54:09;13.35;;;6.05;;
36215;SDS011;22257;52.232;21.084;2022-07-01T08:56:35;13.88;;;6.08;;
36215;SDS011;22257;52.232;21.084;2022-07-01T08:59:21;11.18;;;6.45;;
36215;SDS011;22257;52.232;21.084;2022-07-01T09:01:43;12.05;;;6.35;;
36215;SDS011;22257;52.232;21.084;2022-07-01T09:04:19;13.95;;;6.20;;
36215;SDS011;22257;52.232;21.084;2022-07-01T09:06:46;18.35;;;6.00;;
36215;SDS011;22257;52.232;21.084;2022-07-01T09:09:19;15.28;;;5.37;;
36215;SDS011;22257;52.232;21.084;2022-07-01T09:11:46;11.90;;;5.60;;
36215;SDS011;22257;52.232;21.084;2022-07-01T09:14:16;7.67;;;4.95;;
36215;SDS011;22257;52.232;21.084;2022-07-01T09:16:47;7.67;;;5.30;;
36215;SDS011;22257;52.232;21.084;2022-07-01T09:19:18;13.48;;;5.60;;
36215;SDS011;22257;52.232;21.084;2022-07-01T09:21:53;12.93;;;5.33;;
36215;SDS011;22257;52.232;21.084;2022-07-01T09:24:25;10.32;;;5.20;;
36215;SDS011;22257;52.232;21.084;2022-07-01T09:29:30;8.35;;;5.10;;
36215;SDS011;22257;52.232;21.084;2022-07-01T09:31:54;14.03;;;5.65;;
36215;SDS011;22257;52.232;21.084;2022-07-01T09:34:20;9.45;;;5.37;;
36215;SDS011;22257;52.232;21.084;2022-07-01T09:36:51;12.47;;;4.92;;
36215;SDS011;22257;52.232;21.084;2022-07-01T09:39:19;10.75;;;5.17;;
36215;SDS011;22257;52.232;21.084;2022-07-01T09:41:45;9.68;;;5.10;;
36215;SDS011;22257;52.232;21.084;2022-07-01T09:44:11;12.80;;;5.58;;
36215;SDS011;22257;52.232;21.084;2022-07-01T09:46:37;9.38;;;5.03;;
36215;SDS011;22257;52.232;21.084;2022-07-01T09:49:03;11.45;;;5.42;;
36215;SDS011;22257;52.232;21.084;2022-07-01T09:51:29;13.53;;;5.33;;
36215;SDS011;22257;52.232;21.084;2022-07-01T09:53:55;9.48;;;5.30;;
36215;SDS011;22257;52.232;21.084;2022-07-01T09:56:25;9.10;;;5.20;;
36215;SDS011;22257;52.232;21.084;2022-07-01T09:58:51;12.40;;;5.53;;
36215;SDS011;22257;52.232;21.084;2022-07-01T10:01:17;9.33;;;5.10;;
36215;SDS011;22257;52.232;21.084;2022-07-01T10:03:45;11.75;;;4.95;;
36215;SDS011;22257;52.232;21.084;2022-07-01T10:06:15;11.35;;;4.70;;
36215;SDS011;22257;52.232;21.084;2022-07-01T10:14:07;9.95;;;5.05;;
36215;SDS011;22257;52.232;21.084;2022-07-01T10:16:35;8.78;;;5.45;;
36215;SDS011;22257;52.232;21.084;2022-07-01T10:22:00;10.70;;;5.58;;
36215;SDS011;22257;52.232;21.084;2022-07-01T10:24:28;13.62;;;6.03;;
36215;SDS011;22257;52.232;21.084;2022-07-01T10:26:58;10.95;;;5.17;;
36215;SDS011;22257;52.232;21.084;2022-07-01T10:37:18;10.80;;;5.40;;
36215;SDS011;22257;52.232;21.084;2022-07-01T10:44:59;8.40;;;4.80;;
36215;SDS011;22257;52.232;21.084;2022-07-01T10:47:28;11.60;;;5.50;;
36215;SDS011;22257;52.232;21.084;2022-07-01T10:49:58;13.68;;;4.78;;
36215;SDS011;22257;52.232;21.084;2022-07-01T10:52:26;9.55;;;4.67;;
36215;SDS011;22257;52.232;21.084;2022-07-01T10:54:54;10.80;;;4.58;;
36215;SDS011;22257;52.232;21.084;2022-07-01T11:02:28;14.63;;;4.53;;
36215;SDS011;22257;52.232;21.084;2022-07-01T11:05:10;12.18;;;4.87;;
36215;SDS011;22257;52.232;21.084;2022-07-01T11:07:38;11.55;;;4.53;;
36215;SDS011;22257;52.232;21.084;2022-07-01T11:10:11;10.58;;;4.33;;
36215;SDS011;22257;52.232;21.084;2022-07-01T11:12:41;10.13;;;4.42;;
36215;SDS011;22257;52.232;21.084;2022-07-01T11:15:10;12.13;;;4.53;;
36215;SDS011;22257;52.232;21.084;2022-07-01T11:17:42;9.00;;;4.75;;
36215;SDS011;22257;52.232;21.084;2022-07-01T11:20:10;14.50;;;4.30;;
36215;SDS011;22257;52.232;21.084;2022-07-01T11:22:37;10.50;;;4.25;;
36215;SDS011;22257;52.232;21.084;2022-07-01T11:25:05;9.88;;;4.60;;
36215;SDS011;22257;52.232;21.084;2022-07-01T11:27:34;19.90;;;5.00;;
36215;SDS011;22257;52.232;21.084;2022-07-01T11:30:07;10.35;;;4.47;;
36215;SDS011;22257;52.232;21.084;2022-07-01T11:32:36;12.90;;;4.65;;
36215;SDS011;22257;52.232;21.084;2022-07-01T11:35:01;11.50;;;4.42;;
36215;SDS011;22257;52.232;21.084;2022-07-01T11:37:31;8.88;;;4.58;;
36215;SDS011;22257;52.232;21.084;2022-07-01T11:40:17;10.78;;;4.62;;
36215;SDS011;22257;52.232;21.084;2022-07-01T11:42:44;10.10;;;4.62;;
36215;SDS011;22257;52.232;21.084;2022-07-01T11:45:32;7.53;;;4.50;;
36215;SDS011;22257;52.232;21.084;2022-07-01T11:47:50;9.30;;;4.73;;
36215;SDS011;22257;52.232;21.084;2022-07-01T11:50:16;11.70;;;4.70;;
36215;SDS011;22257;52.232;21.084;2022-07-01T11:52:42;9.28;;;4.20;;
36215;SDS011;22257;52.232;21.084;2022-07-01T11:55:09;10.18;;;4.42;;
36215;SDS011;22257;52.232;21.084;2022-07-01T11:57:35;11.70;;;3.95;;
36215;SDS011;22257;52.232;21.084;2022-07-01T12:00:12;10.25;;;4.60;;
36215;SDS011;22257;52.232;21.084;2022-07-01T12:02:38;11.93;;;4.15;;
36215;SDS011;22257;52.232;21.084;2022-07-01T12:05:05;13.15;;;4.08;;
36215;SDS011;22257;52.232;21.084;2022-07-01T12:07:32;9.70;;;4.70;;
36215;SDS011;22257;52.232;21.084;2022-07-01T12:09:59;8.38;;;4.75;;
36215;SDS011;22257;52.232;21.084;2022-07-01T12:12:27;5.75;;;3.87;;
36215;SDS011;22257;52.232;21.084;2022-07-01T12:14:57;9.30;;;4.20;;
36215;SDS011;22257;52.232;21.084;2022-07-01T12:17:22;14.30;;;4.47;;
36215;SDS011;22257;52.232;21.084;2022-07-01T12:19:50;10.38;;;4.40;;
36215;SDS011;22257;52.232;21.084;2022-07-01T12:22:18;10.60;;;4.47;;
36215;SDS011;22257;52.232;21.084;2022-07-01T12:24:46;10.32;;;5.00;;
36215;SDS011;22257;52.232;21.084;2022-07-01T12:27:13;8.73;;;4.03;;
36215;SDS011;22257;52.232;21.084;2022-07-01T12:32:15;10.85;;;4.30;;
36215;SDS011;22257;52.232;21.084;2022-07-01T12:37:28;10.63;;;4.33;;
36215;SDS011;22257;52.232;21.084;2022-07-01T12:42:33;8.93;;;5.03;;
36215;SDS011;22257;52.232;21.084;2022-07-01T12:45:04;10.23;;;4.65;;
36215;SDS011;22257;52.232;21.084;2022-07-01T12:47:33;8.13;;;4.30;;
36215;SDS011;22257;52.232;21.084;2022-07-01T12:52:40;7.20;;;4.10;;
36215;SDS011;22257;52.232;21.084;2022-07-01T12:57:43;10.40;;;4.85;;
36215;SDS011;22257;52.232;21.084;2022-07-01T13:00:11;10.70;;;4.58;;
36215;SDS011;22257;52.232;21.084;2022-07-01T13:02:38;17.02;;;4.60;;
36215;SDS011;22257;52.232;21.084;2022-07-01T13:05:04;7.65;;;4.25;;
36215;SDS011;22257;52.232;21.084;2022-07-01T13:07:31;11.93;;;4.05;;
36215;SDS011;22257;52.232;21.084;2022-07-01T13:09:57;10.50;;;3.95;;
36215;SDS011;22257;52.232;21.084;2022-07-01T13:12:23;12.80;;;4.70;;
36215;SDS011;22257;52.232;21.084;2022-07-01T13:14:49;15.75;;;4.62;;
36215;SDS011;22257;52.232;21.084;2022-07-01T13:17:15;11.08;;;4.20;;
36215;SDS011;22257;52.232;21.084;2022-07-01T13:19:42;8.58;;;4.03;;
36215;SDS011;22257;52.232;21.084;2022-07-01T13:22:08;9.83;;;4.20;;
36215;SDS011;22257;52.232;21.084;2022-07-01T13:24:34;8.78;;;3.92;;
36215;SDS011;22257;52.232;21.084;2022-07-01T13:26:59;9.98;;;4.20;;
36215;SDS011;22257;52.232;21.084;2022-07-01T13:29:26;7.03;;;4.00;;
36215;SDS011;22257;52.232;21.084;2022-07-01T13:31:52;13.35;;;4.60;;
36215;SDS011;22257;52.232;21.084;2022-07-01T13:34:18;11.50;;;4.42;;
36215;SDS011;22257;52.232;21.084;2022-07-01T13:36:44;10.50;;;4.50;;
36215;SDS011;22257;52.232;21.084;2022-07-01T13:39:10;9.88;;;4.20;;
36215;SDS011;22257;52.232;21.084;2022-07-01T13:41:36;11.08;;;3.95;;
36215;SDS011;22257;52.232;21.084;2022-07-01T13:44:09;11.38;;;4.15;;
36215;SDS011;22257;52.232;21.084;2022-07-01T13:46:35;10.88;;;4.08;;
36215;SDS011;22257;52.232;21.084;2022-07-01T13:49:03;10.32;;;3.75;;
36215;SDS011;22257;52.232;21.084;2022-07-01T13:51:30;8.25;;;3.90;;
36215;SDS011;22257;52.232;21.084;2022-07-01T13:53:56;7.40;;;3.80;;
36215;SDS011;22257;52.232;21.084;2022-07-01T13:56:27;11.50;;;4.15;;
36215;SDS011;22257;52.232;21.084;2022-07-01T13:58:53;10.00;;;4.00;;
36215;SDS011;22257;52.232;21.084;2022-07-01T14:01:20;16.70;;;4.25;;
36215;SDS011;22257;52.232;21.084;2022-07-01T14:03:50;9.93;;;4.15;;
36215;SDS011;22257;52.232;21.084;2022-07-01T14:06:17;10.20;;;3.75;;
36215;SDS011;22257;52.232;21.084;2022-07-01T14:08:43;8.68;;;3.80;;
36215;SDS011;22257;52.232;21.084;2022-07-01T14:11:10;11.12;;;4.87;;
36215;SDS011;22257;52.232;21.084;2022-07-01T14:13:36;7.80;;;3.90;;
36215;SDS011;22257;52.232;21.084;2022-07-01T14:16:04;9.43;;;3.90;;
36215;SDS011;22257;52.232;21.084;2022-07-01T14:18:32;8.40;;;3.77;;
36215;SDS011;22257;52.232;21.084;2022-07-01T14:21:00;6.10;;;3.55;;
36215;SDS011;22257;52.232;21.084;2022-07-01T14:23:27;6.70;;;3.65;;
36215;SDS011;22257;52.232;21.084;2022-07-01T14:25:53;14.55;;;3.37;;
36215;SDS011;22257;52.232;21.084;2022-07-01T14:28:19;11.68;;;3.65;;
36215;SDS011;22257;52.232;21.084;2022-07-01T14:30:45;9.18;;;4.12;;
36215;SDS011;22257;52.232;21.084;2022-07-01T14:33:12;9.58;;;3.87;;
36215;SDS011;22257;52.232;21.084;2022-07-01T14:35:39;10.30;;;3.50;;
36215;SDS011;22257;52.232;21.084;2022-07-01T14:38:04;7.80;;;3.60;;
36215;SDS011;22257;52.232;21.084;2022-07-01T14:40:31;4.83;;;3.60;;
36215;SDS011;22257;52.232;21.084;2022-07-01T14:43:00;6.65;;;3.90;;
36215;SDS011;22257;52.232;21.084;2022-07-01T14:45:26;11.80;;;4.00;;
36215;SDS011;22257;52.232;21.084;2022-07-01T14:47:53;8.08;;;3.67;;
36215;SDS011;22257;52.232;21.084;2022-07-01T14:50:18;7.17;;;3.42;;
36215;SDS011;22257;52.232;21.084;2022-07-01T14:52:45;9.03;;;3.70;;
36215;SDS011;22257;52.232;21.084;2022-07-01T14:55:11;12.58;;;3.62;;
36215;SDS011;22257;52.232;21.084;2022-07-01T14:57:37;13.70;;;3.95;;
36215;SDS011;22257;52.232;21.084;2022-07-01T15:00:04;12.13;;;3.70;;
36215;SDS011;22257;52.232;21.084;2022-07-01T15:02:31;11.80;;;3.80;;
36215;SDS011;22257;52.232;21.084;2022-07-01T15:04:58;8.98;;;3.67;;